sensor_id;sensor_type;location;lat;lon;timestamp;P1;durP1;ratioP1;P2;durP2;ratioP2
68473;SDS011;55461;52.066;5.194;2022-07-30T00:00:43;8.0;;;5.0;;
68473;SDS011;55461;52.066;5.194;2022-07-30T00:02:31;8.81;;;4.7;;
68473;SDS011;55461;52.066;5.194;2022-07-30T00:06:04;8.6;;;5.4;;
68473;SDS011;55461;52.066;5.194;2022-07-30T00:07:51;10.5;;;5.3;;
68473;SDS011;55461;52.066;5.194;2022-07-30T00:09:38;10.0;;;5.2;;
68473;SDS011;55461;52.066;5.194;2022-07-30T00:11:25;7.9;;;5.0;;
68473;SDS011;55461;52.066;5.194;2022-07-30T00:13:11;8.9;;;5.2;;
68473;SDS011;55461;52.066;5.194;2022-07-30T00:14:57;8.71;;;5.4;;
68473;SDS011;55461;52.066;5.194;2022-07-30T00:18:32;9.81;;;5.2;;
68473;SDS011;55461;52.066;5.194;2022-07-30T00:20:18;8.4;;;5.11;;
68473;SDS011;55461;52.066;5.194;2022-07-30T00:22:05;10.21;;;5.5;;
68473;SDS011;55461;52.066;5.194;2022-07-30T00:23:51;11.0;;;5.4;;
68473;SDS011;55461;52.066;5.194;2022-07-30T00:25:37;11.0;;;5.4;;
68473;SDS011;55461;52.066;5.194;2022-07-30T00:27:24;10.8;;;5.6;;
68473;SDS011;55461;52.066;5.194;2022-07-30T00:30:58;9.31;;;5.5;;
68473;SDS011;55461;52.066;5.194;2022-07-30T00:32:45;10.4;;;5.5;;
68473;SDS011;55461;52.066;5.194;2022-07-30T00:34:31;9.6;;;5.7;;
68473;SDS011;55461;52.066;5.194;2022-07-30T00:36:17;9.21;;;5.6;;
68473;SDS011;55461;52.066;5.194;2022-07-30T00:38:03;10.0;;;5.4;;
68473;SDS011;55461;52.066;5.194;2022-07-30T00:41:51;9.0;;;4.91;;
68473;SDS011;55461;52.066;5.194;2022-07-30T00:43:39;6.9;;;4.91;;
68473;SDS011;55461;52.066;5.194;2022-07-30T00:45:26;9.9;;;5.8;;
68473;SDS011;55461;52.066;5.194;2022-07-30T00:47:14;9.9;;;5.7;;
68473;SDS011;55461;52.066;5.194;2022-07-30T00:49:00;10.21;;;5.3;;
68473;SDS011;55461;52.066;5.194;2022-07-30T00:50:46;8.81;;;5.6;;
68473;SDS011;55461;52.066;5.194;2022-07-30T00:52:33;11.4;;;6.0;;
68473;SDS011;55461;52.066;5.194;2022-07-30T00:56:07;9.0;;;5.0;;
68473;SDS011;55461;52.066;5.194;2022-07-30T00:57:53;9.0;;;5.0;;
68473;SDS011;55461;52.066;5.194;2022-07-30T00:59:39;11.2;;;6.6;;
68473;SDS011;55461;52.066;5.194;2022-07-30T01:01:25;12.6;;;6.9;;
68473;SDS011;55461;52.066;5.194;2022-07-30T01:03:12;12.0;;;6.3;;
68473;SDS011;55461;52.066;5.194;2022-07-30T01:06:44;11.8;;;6.1;;
68473;SDS011;55461;52.066;5.194;2022-07-30T01:08:30;11.2;;;6.0;;
68473;SDS011;55461;52.066;5.194;2022-07-30T01:10:16;11.1;;;5.9;;
68473;SDS011;55461;52.066;5.194;2022-07-30T01:12:06;11.8;;;7.1;;
68473;SDS011;55461;52.066;5.194;2022-07-30T01:13:54;10.7;;;7.0;;
68473;SDS011;55461;52.066;5.194;2022-07-30T01:15:41;11.2;;;7.2;;
68473;SDS011;55461;52.066;5.194;2022-07-30T01:20:20;12.7;;;7.5;;
68473;SDS011;55461;52.066;5.194;2022-07-30T01:22:15;12.0;;;7.5;;
68473;SDS011;55461;52.066;5.194;2022-07-30T01:24:18;12.2;;;7.0;;
68473;SDS011;55461;52.066;5.194;2022-07-30T01:26:16;12.5;;;7.2;;
68473;SDS011;55461;52.066;5.194;2022-07-30T01:28:05;13.8;;;7.5;;
68473;SDS011;55461;52.066;5.194;2022-07-30T01:31:44;14.1;;;7.8;;
68473;SDS011;55461;52.066;5.194;2022-07-30T01:33:34;11.8;;;7.5;;
68473;SDS011;55461;52.066;5.194;2022-07-30T01:35:26;11.4;;;7.0;;
68473;SDS011;55461;52.066;5.194;2022-07-30T01:37:15;10.3;;;6.8;;
68473;SDS011;55461;52.066;5.194;2022-07-30T01:39:04;13.4;;;7.8;;
68473;SDS011;55461;52.066;5.194;2022-07-30T01:40:52;11.9;;;7.7;;
68473;SDS011;55461;52.066;5.194;2022-07-30T01:42:40;13.9;;;8.31;;
68473;SDS011;55461;52.066;5.194;2022-07-30T01:46:17;14.0;;;8.0;;
68473;SDS011;55461;52.066;5.194;2022-07-30T01:48:05;13.3;;;8.0;;
68473;SDS011;55461;52.066;5.194;2022-07-30T01:49:54;14.1;;;8.71;;
68473;SDS011;55461;52.066;5.194;2022-07-30T01:51:43;13.2;;;8.81;;
68473;SDS011;55461;52.066;5.194;2022-07-30T01:53:35;11.1;;;8.0;;
68473;SDS011;55461;52.066;5.194;2022-07-30T01:55:26;13.7;;;7.9;;
68473;SDS011;55461;52.066;5.194;2022-07-30T01:57:26;13.2;;;7.8;;
68473;SDS011;55461;52.066;5.194;2022-07-30T02:01:04;12.4;;;8.31;;
68473;SDS011;55461;52.066;5.194;2022-07-30T02:02:51;14.0;;;8.81;;
68473;SDS011;55461;52.066;5.194;2022-07-30T02:04:38;13.8;;;8.6;;
68473;SDS011;55461;52.066;5.194;2022-07-30T02:06:25;12.7;;;8.4;;
68473;SDS011;55461;52.066;5.194;2022-07-30T02:08:21;10.21;;;7.4;;
68473;SDS011;55461;52.066;5.194;2022-07-30T02:10:21;14.6;;;8.31;;
68473;SDS011;55461;52.066;5.194;2022-07-30T02:12:29;13.9;;;9.31;;
68473;SDS011;55461;52.066;5.194;2022-07-30T02:14:18;17.0;;;10.4;;
68473;SDS011;55461;52.066;5.194;2022-07-30T02:16:15;15.4;;;10.3;;
68473;SDS011;55461;52.066;5.194;2022-07-30T02:19:58;16.11;;;10.0;;
68473;SDS011;55461;52.066;5.194;2022-07-30T02:21:46;14.3;;;10.0;;
68473;SDS011;55461;52.066;5.194;2022-07-30T02:23:45;14.6;;;10.1;;
68473;SDS011;55461;52.066;5.194;2022-07-30T02:25:34;13.7;;;9.21;;
68473;SDS011;55461;52.066;5.194;2022-07-30T02:27:29;16.0;;;10.3;;
68473;SDS011;55461;52.066;5.194;2022-07-30T02:29:18;15.2;;;10.1;;
68473;SDS011;55461;52.066;5.194;2022-07-30T02:31:07;16.4;;;9.6;;
68473;SDS011;55461;52.066;5.194;2022-07-30T02:32:58;13.8;;;9.5;;
68473;SDS011;55461;52.066;5.194;2022-07-30T02:36:45;14.4;;;9.0;;
68473;SDS011;55461;52.066;5.194;2022-07-30T02:38:33;14.0;;;9.0;;
68473;SDS011;55461;52.066;5.194;2022-07-30T02:40:22;14.0;;;9.6;;
68473;SDS011;55461;52.066;5.194;2022-07-30T02:42:10;15.4;;;9.6;;
68473;SDS011;55461;52.066;5.194;2022-07-30T02:44:00;13.9;;;9.81;;
68473;SDS011;55461;52.066;5.194;2022-07-30T02:45:48;14.7;;;9.9;;
68473;SDS011;55461;52.066;5.194;2022-07-30T02:47:35;16.0;;;10.9;;
68473;SDS011;55461;52.066;5.194;2022-07-30T02:51:14;14.8;;;9.81;;
68473;SDS011;55461;52.066;5.194;2022-07-30T02:53:02;15.1;;;9.81;;
68473;SDS011;55461;52.066;5.194;2022-07-30T02:54:52;15.7;;;9.9;;
68473;SDS011;55461;52.066;5.194;2022-07-30T02:56:42;14.7;;;9.9;;
68473;SDS011;55461;52.066;5.194;2022-07-30T02:58:31;15.3;;;10.1;;
68473;SDS011;55461;52.066;5.194;2022-07-30T03:00:21;14.5;;;10.4;;
68473;SDS011;55461;52.066;5.194;2022-07-30T03:02:11;15.5;;;11.1;;
68473;SDS011;55461;52.066;5.194;2022-07-30T03:05:47;16.11;;;11.6;;
68473;SDS011;55461;52.066;5.194;2022-07-30T03:07:36;16.5;;;11.3;;
68473;SDS011;55461;52.066;5.194;2022-07-30T03:09:25;14.3;;;10.5;;
68473;SDS011;55461;52.066;5.194;2022-07-30T03:11:12;14.3;;;10.5;;
68473;SDS011;55461;52.066;5.194;2022-07-30T03:13:00;17.0;;;11.8;;
68473;SDS011;55461;52.066;5.194;2022-07-30T03:14:49;15.5;;;11.5;;
68473;SDS011;55461;52.066;5.194;2022-07-30T03:18:26;17.5;;;11.9;;
68473;SDS011;55461;52.066;5.194;2022-07-30T03:20:21;17.2;;;12.5;;
68473;SDS011;55461;52.066;5.194;2022-07-30T03:22:10;17.91;;;12.7;;
68473;SDS011;55461;52.066;5.194;2022-07-30T03:24:02;16.11;;;12.3;;
68473;SDS011;55461;52.066;5.194;2022-07-30T03:25:51;19.11;;;12.5;;
68473;SDS011;55461;52.066;5.194;2022-07-30T03:27:42;18.2;;;13.5;;
68473;SDS011;55461;52.066;5.194;2022-07-30T03:29:30;17.41;;;12.1;;
68473;SDS011;55461;52.066;5.194;2022-07-30T03:33:04;20.7;;;13.4;;
68473;SDS011;55461;52.066;5.194;2022-07-30T03:34:53;18.11;;;12.3;;
68473;SDS011;55461;52.066;5.194;2022-07-30T03:36:41;16.61;;;12.1;;
68473;SDS011;55461;52.066;5.194;2022-07-30T03:38:29;17.2;;;12.4;;
68473;SDS011;55461;52.066;5.194;2022-07-30T03:40:16;16.8;;;12.2;;
68473;SDS011;55461;52.066;5.194;2022-07-30T03:42:04;19.0;;;12.9;;
68473;SDS011;55461;52.066;5.194;2022-07-30T03:45:41;18.41;;;13.2;;
68473;SDS011;55461;52.066;5.194;2022-07-30T03:47:31;16.4;;;12.1;;
68473;SDS011;55461;52.066;5.194;2022-07-30T03:49:22;19.7;;;13.2;;
68473;SDS011;55461;52.066;5.194;2022-07-30T03:51:10;19.8;;;13.4;;
68473;SDS011;55461;52.066;5.194;2022-07-30T03:52:57;21.5;;;14.5;;
68473;SDS011;55461;52.066;5.194;2022-07-30T03:54:44;19.11;;;14.3;;
68473;SDS011;55461;52.066;5.194;2022-07-30T03:56:32;19.41;;;14.5;;
68473;SDS011;55461;52.066;5.194;2022-07-30T04:00:07;20.0;;;13.9;;
68473;SDS011;55461;52.066;5.194;2022-07-30T04:02:00;18.2;;;13.2;;
68473;SDS011;55461;52.066;5.194;2022-07-30T04:03:49;19.5;;;14.5;;
68473;SDS011;55461;52.066;5.194;2022-07-30T04:05:35;19.0;;;14.7;;
68473;SDS011;55461;52.066;5.194;2022-07-30T04:07:21;20.6;;;14.6;;
68473;SDS011;55461;52.066;5.194;2022-07-30T04:09:09;18.7;;;14.0;;
68473;SDS011;55461;52.066;5.194;2022-07-30T04:12:44;18.61;;;14.1;;
68473;SDS011;55461;52.066;5.194;2022-07-30T04:14:37;19.5;;;14.4;;
68473;SDS011;55461;52.066;5.194;2022-07-30T04:18:22;19.3;;;13.9;;
68473;SDS011;55461;52.066;5.194;2022-07-30T04:20:13;20.7;;;13.9;;
68473;SDS011;55461;52.066;5.194;2022-07-30T04:22:05;16.9;;;13.2;;
68473;SDS011;55461;52.066;5.194;2022-07-30T04:23:56;18.61;;;14.2;;
68473;SDS011;55461;52.066;5.194;2022-07-30T04:27:32;17.41;;;13.4;;
68473;SDS011;55461;52.066;5.194;2022-07-30T04:29:20;18.5;;;13.7;;
68473;SDS011;55461;52.066;5.194;2022-07-30T04:31:07;17.3;;;13.3;;
68473;SDS011;55461;52.066;5.194;2022-07-30T04:32:55;17.91;;;13.5;;
68473;SDS011;55461;52.066;5.194;2022-07-30T04:34:45;20.3;;;14.5;;
68473;SDS011;55461;52.066;5.194;2022-07-30T04:36:33;19.2;;;13.1;;
68473;SDS011;55461;52.066;5.194;2022-07-30T04:40:07;21.0;;;14.6;;
68473;SDS011;55461;52.066;5.194;2022-07-30T04:41:54;16.9;;;13.1;;
68473;SDS011;55461;52.066;5.194;2022-07-30T04:43:40;16.0;;;12.7;;
68473;SDS011;55461;52.066;5.194;2022-07-30T04:45:27;18.8;;;13.7;;
68473;SDS011;55461;52.066;5.194;2022-07-30T04:47:13;18.3;;;14.8;;
68473;SDS011;55461;52.066;5.194;2022-07-30T04:49:00;19.3;;;14.0;;
68473;SDS011;55461;52.066;5.194;2022-07-30T04:52:38;21.7;;;14.4;;
68473;SDS011;55461;52.066;5.194;2022-07-30T04:54:26;19.7;;;13.8;;
68473;SDS011;55461;52.066;5.194;2022-07-30T04:56:25;20.11;;;14.6;;
68473;SDS011;55461;52.066;5.194;2022-07-30T04:58:16;20.6;;;14.6;;
68473;SDS011;55461;52.066;5.194;2022-07-30T05:00:05;19.7;;;13.3;;
68473;SDS011;55461;52.066;5.194;2022-07-30T05:01:53;17.7;;;14.1;;
68473;SDS011;55461;52.066;5.194;2022-07-30T05:03:43;17.3;;;13.2;;
68473;SDS011;55461;52.066;5.194;2022-07-30T05:07:20;17.3;;;13.2;;
68473;SDS011;55461;52.066;5.194;2022-07-30T05:09:07;18.0;;;14.6;;
68473;SDS011;55461;52.066;5.194;2022-07-30T05:10:55;20.3;;;13.9;;
68473;SDS011;55461;52.066;5.194;2022-07-30T05:12:42;20.11;;;14.7;;
68473;SDS011;55461;52.066;5.194;2022-07-30T05:14:28;19.11;;;14.0;;
68473;SDS011;55461;52.066;5.194;2022-07-30T05:16:14;18.0;;;13.6;;
68473;SDS011;55461;52.066;5.194;2022-07-30T05:19:47;15.8;;;12.5;;
68473;SDS011;55461;52.066;5.194;2022-07-30T05:21:33;17.3;;;12.9;;
68473;SDS011;55461;52.066;5.194;2022-07-30T05:23:20;15.1;;;11.6;;
68473;SDS011;55461;52.066;5.194;2022-07-30T05:25:08;15.6;;;11.7;;
68473;SDS011;55461;52.066;5.194;2022-07-30T05:26:54;16.5;;;11.8;;
68473;SDS011;55461;52.066;5.194;2022-07-30T05:28:41;14.9;;;11.6;;
68473;SDS011;55461;52.066;5.194;2022-07-30T05:32:13;16.8;;;11.1;;
68473;SDS011;55461;52.066;5.194;2022-07-30T05:33:59;14.9;;;11.0;;
68473;SDS011;55461;52.066;5.194;2022-07-30T05:35:47;16.7;;;11.7;;
68473;SDS011;55461;52.066;5.194;2022-07-30T05:37:34;14.5;;;11.0;;
68473;SDS011;55461;52.066;5.194;2022-07-30T05:39:20;14.6;;;10.21;;
68473;SDS011;55461;52.066;5.194;2022-07-30T05:41:07;13.7;;;10.9;;
68473;SDS011;55461;52.066;5.194;2022-07-30T05:44:39;13.5;;;10.1;;
68473;SDS011;55461;52.066;5.194;2022-07-30T05:46:26;13.7;;;10.5;;
68473;SDS011;55461;52.066;5.194;2022-07-30T05:48:13;14.1;;;10.1;;
68473;SDS011;55461;52.066;5.194;2022-07-30T05:49:59;14.3;;;10.0;;
68473;SDS011;55461;52.066;5.194;2022-07-30T05:51:45;16.5;;;10.0;;
68473;SDS011;55461;52.066;5.194;2022-07-30T05:55:18;13.0;;;9.31;;
68473;SDS011;55461;52.066;5.194;2022-07-30T05:57:05;13.6;;;9.5;;
68473;SDS011;55461;52.066;5.194;2022-07-30T05:58:51;12.8;;;9.0;;
68473;SDS011;55461;52.066;5.194;2022-07-30T06:00:37;11.5;;;8.2;;
68473;SDS011;55461;52.066;5.194;2022-07-30T06:02:24;12.8;;;7.9;;
68473;SDS011;55461;52.066;5.194;2022-07-30T06:04:10;10.8;;;7.2;;
68473;SDS011;55461;52.066;5.194;2022-07-30T06:07:42;9.5;;;6.8;;
68473;SDS011;55461;52.066;5.194;2022-07-30T06:09:30;11.2;;;6.7;;
68473;SDS011;55461;52.066;5.194;2022-07-30T06:11:16;10.7;;;6.3;;
68473;SDS011;55461;52.066;5.194;2022-07-30T06:13:02;10.3;;;6.1;;
68473;SDS011;55461;52.066;5.194;2022-07-30T06:14:49;10.1;;;5.8;;
68473;SDS011;55461;52.066;5.194;2022-07-30T06:18:21;8.71;;;5.8;;
68473;SDS011;55461;52.066;5.194;2022-07-30T06:20:08;7.9;;;4.91;;
68473;SDS011;55461;52.066;5.194;2022-07-30T06:21:56;9.9;;;5.4;;
68473;SDS011;55461;52.066;5.194;2022-07-30T06:23:42;8.31;;;5.4;;
68473;SDS011;55461;52.066;5.194;2022-07-30T06:25:30;9.21;;;4.91;;
68473;SDS011;55461;52.066;5.194;2022-07-30T06:27:17;6.2;;;4.3;;
68473;SDS011;55461;52.066;5.194;2022-07-30T06:30:51;7.0;;;4.2;;
68473;SDS011;55461;52.066;5.194;2022-07-30T06:32:38;7.7;;;4.61;;
68473;SDS011;55461;52.066;5.194;2022-07-30T06:34:25;7.4;;;4.1;;
68473;SDS011;55461;52.066;5.194;2022-07-30T06:36:11;6.8;;;4.0;;
68473;SDS011;55461;52.066;5.194;2022-07-30T06:37:58;6.2;;;3.7;;
68473;SDS011;55461;52.066;5.194;2022-07-30T06:39:45;7.0;;;3.7;;
68473;SDS011;55461;52.066;5.194;2022-07-30T06:43:18;9.4;;;3.4;;
68473;SDS011;55461;52.066;5.194;2022-07-30T06:45:06;5.3;;;3.6;;
68473;SDS011;55461;52.066;5.194;2022-07-30T06:46:54;7.2;;;3.2;;
68473;SDS011;55461;52.066;5.194;2022-07-30T06:48:41;7.3;;;3.6;;
68473;SDS011;55461;52.066;5.194;2022-07-30T06:50:28;7.4;;;3.3;;
68473;SDS011;55461;52.066;5.194;2022-07-30T06:54:00;7.7;;;3.2;;
68473;SDS011;55461;52.066;5.194;2022-07-30T06:57:34;5.6;;;2.9;;
68473;SDS011;55461;52.066;5.194;2022-07-30T06:59:20;6.4;;;3.2;;
68473;SDS011;55461;52.066;5.194;2022-07-30T07:01:07;3.9;;;2.8;;
68473;SDS011;55461;52.066;5.194;2022-07-30T07:02:54;5.4;;;2.8;;
68473;SDS011;55461;52.066;5.194;2022-07-30T07:04:40;5.6;;;2.8;;
68473;SDS011;55461;52.066;5.194;2022-07-30T07:08:14;5.6;;;2.8;;
68473;SDS011;55461;52.066;5.194;2022-07-30T07:10:00;5.4;;;3.2;;
68473;SDS011;55461;52.066;5.194;2022-07-30T07:11:46;6.8;;;3.0;;
68473;SDS011;55461;52.066;5.194;2022-07-30T07:13:33;4.0;;;2.4;;
68473;SDS011;55461;52.066;5.194;2022-07-30T07:15:20;5.5;;;2.6;;
68473;SDS011;55461;52.066;5.194;2022-07-30T07:17:07;5.2;;;2.8;;
68473;SDS011;55461;52.066;5.194;2022-07-30T07:20:42;4.61;;;2.8;;
68473;SDS011;55461;52.066;5.194;2022-07-30T07:22:28;4.0;;;2.31;;
68473;SDS011;55461;52.066;5.194;2022-07-30T07:24:14;5.7;;;2.7;;
68473;SDS011;55461;52.066;5.194;2022-07-30T07:26:00;5.0;;;2.4;;
68473;SDS011;55461;52.066;5.194;2022-07-30T07:27:47;5.8;;;2.8;;
68473;SDS011;55461;52.066;5.194;2022-07-30T07:31:19;5.4;;;2.6;;
68473;SDS011;55461;52.066;5.194;2022-07-30T07:33:05;5.6;;;2.9;;
68473;SDS011;55461;52.066;5.194;2022-07-30T07:34:51;5.7;;;3.5;;
68473;SDS011;55461;52.066;5.194;2022-07-30T07:36:38;5.9;;;3.2;;
68473;SDS011;55461;52.066;5.194;2022-07-30T07:38:24;7.1;;;3.4;;
68473;SDS011;55461;52.066;5.194;2022-07-30T07:40:12;6.1;;;3.2;;
68473;SDS011;55461;52.066;5.194;2022-07-30T07:43:44;6.4;;;3.6;;
68473;SDS011;55461;52.066;5.194;2022-07-30T07:45:30;5.7;;;3.3;;
68473;SDS011;55461;52.066;5.194;2022-07-30T07:47:16;6.6;;;3.3;;
68473;SDS011;55461;52.066;5.194;2022-07-30T07:49:03;6.8;;;3.1;;
68473;SDS011;55461;52.066;5.194;2022-07-30T07:50:50;6.9;;;3.1;;
68473;SDS011;55461;52.066;5.194;2022-07-30T07:52:36;5.8;;;3.2;;
68473;SDS011;55461;52.066;5.194;2022-07-30T07:56:09;4.3;;;3.2;;
68473;SDS011;55461;52.066;5.194;2022-07-30T07:57:55;5.5;;;3.1;;
68473;SDS011;55461;52.066;5.194;2022-07-30T07:59:41;4.0;;;2.9;;
68473;SDS011;55461;52.066;5.194;2022-07-30T08:01:28;5.3;;;3.2;;
68473;SDS011;55461;52.066;5.194;2022-07-30T08:03:14;5.7;;;3.1;;
68473;SDS011;55461;52.066;5.194;2022-07-30T08:06:48;5.6;;;3.0;;
68473;SDS011;55461;52.066;5.194;2022-07-30T08:08:36;5.11;;;3.0;;
68473;SDS011;55461;52.066;5.194;2022-07-30T08:10:22;4.3;;;2.8;;
68473;SDS011;55461;52.066;5.194;2022-07-30T08:12:09;4.61;;;2.8;;
68473;SDS011;55461;52.066;5.194;2022-07-30T08:13:56;6.1;;;3.4;;
68473;SDS011;55461;52.066;5.194;2022-07-30T08:15:44;4.8;;;2.9;;
68473;SDS011;55461;52.066;5.194;2022-07-30T08:19:18;5.9;;;3.2;;
68473;SDS011;55461;52.066;5.194;2022-07-30T08:21:04;6.5;;;3.3;;
68473;SDS011;55461;52.066;5.194;2022-07-30T08:22:51;5.5;;;3.3;;
68473;SDS011;55461;52.066;5.194;2022-07-30T08:24:37;7.2;;;3.0;;
68473;SDS011;55461;52.066;5.194;2022-07-30T08:26:25;4.0;;;2.8;;
68473;SDS011;55461;52.066;5.194;2022-07-30T08:28:11;5.3;;;2.8;;
68473;SDS011;55461;52.066;5.194;2022-07-30T08:31:44;6.0;;;2.9;;
68473;SDS011;55461;52.066;5.194;2022-07-30T08:33:30;4.2;;;2.5;;
68473;SDS011;55461;52.066;5.194;2022-07-30T08:35:17;4.7;;;3.3;;
68473;SDS011;55461;52.066;5.194;2022-07-30T08:37:04;5.9;;;3.1;;
68473;SDS011;55461;52.066;5.194;2022-07-30T08:38:52;5.11;;;3.0;;
68473;SDS011;55461;52.066;5.194;2022-07-30T08:42:25;5.3;;;3.0;;
68473;SDS011;55461;52.066;5.194;2022-07-30T08:44:12;5.11;;;2.8;;
68473;SDS011;55461;52.066;5.194;2022-07-30T08:46:06;4.5;;;2.8;;
68473;SDS011;55461;52.066;5.194;2022-07-30T08:47:56;4.2;;;3.0;;
68473;SDS011;55461;52.066;5.194;2022-07-30T08:49:46;5.5;;;3.0;;
68473;SDS011;55461;52.066;5.194;2022-07-30T08:51:34;4.8;;;2.5;;
68473;SDS011;55461;52.066;5.194;2022-07-30T08:53:21;3.8;;;2.6;;
68473;SDS011;55461;52.066;5.194;2022-07-30T08:56:56;3.7;;;2.5;;
68473;SDS011;55461;52.066;5.194;2022-07-30T08:58:43;4.7;;;2.6;;
68473;SDS011;55461;52.066;5.194;2022-07-30T09:00:30;3.6;;;2.4;;
68473;SDS011;55461;52.066;5.194;2022-07-30T09:02:17;5.0;;;2.8;;
68473;SDS011;55461;52.066;5.194;2022-07-30T09:04:04;3.6;;;2.31;;
68473;SDS011;55461;52.066;5.194;2022-07-30T09:05:50;4.2;;;2.1;;
68473;SDS011;55461;52.066;5.194;2022-07-30T09:09:24;3.6;;;2.1;;
68473;SDS011;55461;52.066;5.194;2022-07-30T09:11:10;4.61;;;2.5;;
68473;SDS011;55461;52.066;5.194;2022-07-30T09:12:57;4.2;;;2.4;;
68473;SDS011;55461;52.066;5.194;2022-07-30T09:14:44;5.11;;;2.21;;
68473;SDS011;55461;52.066;5.194;2022-07-30T09:16:47;3.2;;;1.8;;
68473;SDS011;55461;52.066;5.194;2022-07-30T09:18:43;5.4;;;2.21;;
68473;SDS011;55461;52.066;5.194;2022-07-30T09:20:32;4.7;;;2.0;;
68473;SDS011;55461;52.066;5.194;2022-07-30T09:24:06;2.7;;;2.0;;
68473;SDS011;55461;52.066;5.194;2022-07-30T09:25:57;4.5;;;2.0;;
68473;SDS011;55461;52.066;5.194;2022-07-30T09:27:44;3.0;;;1.8;;
68473;SDS011;55461;52.066;5.194;2022-07-30T09:29:33;2.7;;;1.7;;
68473;SDS011;55461;52.066;5.194;2022-07-30T09:31:20;2.9;;;1.8;;
68473;SDS011;55461;52.066;5.194;2022-07-30T09:33:08;2.1;;;1.6;;
68473;SDS011;55461;52.066;5.194;2022-07-30T09:36:40;2.1;;;1.7;;
68473;SDS011;55461;52.066;5.194;2022-07-30T09:38:27;2.8;;;1.8;;
68473;SDS011;55461;52.066;5.194;2022-07-30T09:40:15;4.5;;;2.0;;
68473;SDS011;55461;52.066;5.194;2022-07-30T09:42:04;3.2;;;1.9;;
68473;SDS011;55461;52.066;5.194;2022-07-30T09:44:03;4.2;;;2.0;;
68473;SDS011;55461;52.066;5.194;2022-07-30T09:45:52;3.0;;;1.9;;
68473;SDS011;55461;52.066;5.194;2022-07-30T09:47:40;4.1;;;2.0;;
68473;SDS011;55461;52.066;5.194;2022-07-30T09:51:15;2.7;;;1.8;;
68473;SDS011;55461;52.066;5.194;2022-07-30T09:53:05;4.1;;;1.8;;
68473;SDS011;55461;52.066;5.194;2022-07-30T09:54:54;2.7;;;1.7;;
68473;SDS011;55461;52.066;5.194;2022-07-30T09:56:40;2.21;;;1.6;;
68473;SDS011;55461;52.066;5.194;2022-07-30T09:58:36;3.4;;;1.7;;
68473;SDS011;55461;52.066;5.194;2022-07-30T10:00:25;3.3;;;1.9;;
68473;SDS011;55461;52.066;5.194;2022-07-30T10:03:59;3.3;;;1.8;;
68473;SDS011;55461;52.066;5.194;2022-07-30T10:05:48;2.6;;;1.7;;
68473;SDS011;55461;52.066;5.194;2022-07-30T10:07:36;3.9;;;1.6;;
68473;SDS011;55461;52.066;5.194;2022-07-30T10:09:23;5.6;;;1.7;;
68473;SDS011;55461;52.066;5.194;2022-07-30T10:11:13;3.8;;;1.7;;
68473;SDS011;55461;52.066;5.194;2022-07-30T10:13:02;4.7;;;1.8;;
68473;SDS011;55461;52.066;5.194;2022-07-30T10:16:38;3.0;;;1.7;;
68473;SDS011;55461;52.066;5.194;2022-07-30T10:18:25;3.7;;;2.0;;
68473;SDS011;55461;52.066;5.194;2022-07-30T10:20:13;3.1;;;2.0;;
68473;SDS011;55461;52.066;5.194;2022-07-30T10:22:01;3.1;;;1.8;;
68473;SDS011;55461;52.066;5.194;2022-07-30T10:23:48;2.6;;;1.3;;
68473;SDS011;55461;52.066;5.194;2022-07-30T10:25:37;3.3;;;1.6;;
68473;SDS011;55461;52.066;5.194;2022-07-30T10:27:24;3.0;;;1.5;;
68473;SDS011;55461;52.066;5.194;2022-07-30T10:31:01;2.21;;;1.4;;
68473;SDS011;55461;52.066;5.194;2022-07-30T10:32:48;2.6;;;1.4;;
68473;SDS011;55461;52.066;5.194;2022-07-30T10:34:38;2.31;;;1.3;;
68473;SDS011;55461;52.066;5.194;2022-07-30T10:36:25;2.31;;;1.3;;
68473;SDS011;55461;52.066;5.194;2022-07-30T10:38:13;2.31;;;1.4;;
68473;SDS011;55461;52.066;5.194;2022-07-30T10:40:04;1.8;;;1.3;;
68473;SDS011;55461;52.066;5.194;2022-07-30T10:44:08;4.2;;;1.4;;
68473;SDS011;55461;52.066;5.194;2022-07-30T10:46:25;3.0;;;1.4;;
68473;SDS011;55461;52.066;5.194;2022-07-30T10:48:24;3.3;;;1.3;;
68473;SDS011;55461;52.066;5.194;2022-07-30T10:52:02;2.0;;;1.6;;
68473;SDS011;55461;52.066;5.194;2022-07-30T10:53:48;3.8;;;1.7;;
68473;SDS011;55461;52.066;5.194;2022-07-30T10:55:34;2.9;;;1.6;;
68473;SDS011;55461;52.066;5.194;2022-07-30T10:57:21;3.9;;;1.7;;
68473;SDS011;55461;52.066;5.194;2022-07-30T10:59:09;2.7;;;1.5;;
68473;SDS011;55461;52.066;5.194;2022-07-30T11:00:57;3.4;;;1.4;;
68473;SDS011;55461;52.066;5.194;2022-07-30T11:05:23;4.1;;;1.5;;
68473;SDS011;55461;52.066;5.194;2022-07-30T11:07:26;2.9;;;1.3;;
68473;SDS011;55461;52.066;5.194;2022-07-30T11:09:33;2.6;;;1.4;;
68473;SDS011;55461;52.066;5.194;2022-07-30T11:11:52;2.0;;;1.3;;
68473;SDS011;55461;52.066;5.194;2022-07-30T11:13:54;3.1;;;1.5;;
68473;SDS011;55461;52.066;5.194;2022-07-30T11:15:57;2.9;;;1.4;;
68473;SDS011;55461;52.066;5.194;2022-07-30T11:18:16;2.0;;;1.4;;
68473;SDS011;55461;52.066;5.194;2022-07-30T11:20:10;2.6;;;1.3;;
68473;SDS011;55461;52.066;5.194;2022-07-30T11:22:20;2.21;;;1.5;;
68473;SDS011;55461;52.066;5.194;2022-07-30T11:24:40;4.0;;;1.3;;
68473;SDS011;55461;52.066;5.194;2022-07-30T11:26:59;2.5;;;1.5;;
68473;SDS011;55461;52.066;5.194;2022-07-30T11:28:47;2.9;;;1.5;;
68473;SDS011;55461;52.066;5.194;2022-07-30T11:30:33;3.4;;;1.6;;
68473;SDS011;55461;52.066;5.194;2022-07-30T11:32:25;2.9;;;1.6;;
68473;SDS011;55461;52.066;5.194;2022-07-30T11:36:16;4.5;;;1.2;;
68473;SDS011;55461;52.066;5.194;2022-07-30T11:38:04;2.9;;;1.6;;
68473;SDS011;55461;52.066;5.194;2022-07-30T11:40:08;3.0;;;1.4;;
68473;SDS011;55461;52.066;5.194;2022-07-30T11:42:22;2.6;;;1.3;;
68473;SDS011;55461;52.066;5.194;2022-07-30T11:44:25;2.9;;;1.4;;
68473;SDS011;55461;52.066;5.194;2022-07-30T11:46:14;2.4;;;1.4;;
68473;SDS011;55461;52.066;5.194;2022-07-30T11:48:05;2.8;;;1.3;;
68473;SDS011;55461;52.066;5.194;2022-07-30T11:49:55;2.6;;;1.5;;
68473;SDS011;55461;52.066;5.194;2022-07-30T11:51:44;2.6;;;1.4;;
68473;SDS011;55461;52.066;5.194;2022-07-30T11:53:32;3.3;;;1.4;;
68473;SDS011;55461;52.066;5.194;2022-07-30T11:55:21;2.8;;;1.2;;
68473;SDS011;55461;52.066;5.194;2022-07-30T11:58:59;3.4;;;1.4;;
68473;SDS011;55461;52.066;5.194;2022-07-30T12:00:47;3.3;;;1.4;;
68473;SDS011;55461;52.066;5.194;2022-07-30T12:02:33;3.2;;;1.5;;
68473;SDS011;55461;52.066;5.194;2022-07-30T12:04:19;3.3;;;1.6;;
68473;SDS011;55461;52.066;5.194;2022-07-30T12:06:07;3.5;;;1.6;;
68473;SDS011;55461;52.066;5.194;2022-07-30T12:07:57;3.2;;;1.5;;
68473;SDS011;55461;52.066;5.194;2022-07-30T12:11:30;2.6;;;1.4;;
68473;SDS011;55461;52.066;5.194;2022-07-30T12:13:17;2.4;;;1.6;;
68473;SDS011;55461;52.066;5.194;2022-07-30T12:15:03;2.9;;;1.5;;
68473;SDS011;55461;52.066;5.194;2022-07-30T12:16:51;2.8;;;1.5;;
68473;SDS011;55461;52.066;5.194;2022-07-30T12:18:39;3.0;;;1.7;;
68473;SDS011;55461;52.066;5.194;2022-07-30T12:20:25;2.8;;;1.6;;
68473;SDS011;55461;52.066;5.194;2022-07-30T12:24:00;4.2;;;1.5;;
68473;SDS011;55461;52.066;5.194;2022-07-30T12:25:48;2.6;;;1.3;;
68473;SDS011;55461;52.066;5.194;2022-07-30T12:27:37;2.6;;;1.3;;
68473;SDS011;55461;52.066;5.194;2022-07-30T12:29:23;2.31;;;1.4;;
68473;SDS011;55461;52.066;5.194;2022-07-30T12:31:13;3.2;;;1.5;;
68473;SDS011;55461;52.066;5.194;2022-07-30T12:33:01;2.1;;;1.4;;
68473;SDS011;55461;52.066;5.194;2022-07-30T12:36:40;2.7;;;1.5;;
68473;SDS011;55461;52.066;5.194;2022-07-30T12:38:26;5.5;;;1.7;;
68473;SDS011;55461;52.066;5.194;2022-07-30T12:40:15;3.7;;;1.7;;
68473;SDS011;55461;52.066;5.194;2022-07-30T12:42:02;4.1;;;1.8;;
68473;SDS011;55461;52.066;5.194;2022-07-30T12:43:52;3.9;;;1.7;;
68473;SDS011;55461;52.066;5.194;2022-07-30T12:45:40;4.2;;;1.6;;
68473;SDS011;55461;52.066;5.194;2022-07-30T12:49:16;3.9;;;1.6;;
68473;SDS011;55461;52.066;5.194;2022-07-30T12:51:03;2.4;;;1.5;;
68473;SDS011;55461;52.066;5.194;2022-07-30T12:52:51;3.8;;;1.6;;
68473;SDS011;55461;52.066;5.194;2022-07-30T12:54:39;4.1;;;1.7;;
68473;SDS011;55461;52.066;5.194;2022-07-30T12:56:26;2.31;;;1.3;;
68473;SDS011;55461;52.066;5.194;2022-07-30T12:58:15;2.5;;;1.5;;